Time;durP1;ratioP1;P1;durP2;ratioP2;P2;SDS_P1;SDS_P2;PMS_P1;PMS_P2;Temp;Humidity;BMP_temperature;BMP_pressure;BME280_temperature;BME280_humidity;BME280_pressure;Samples;Min_cycle;Max_cycle;Signal;HPM_P1;HPM_P2
2021/06/24 00:00:59;;;;;;;20.50;18.40;;;13.50;99.90;;;;;;5093400;28;20455;-62
2021/06/24 00:03:29;;;;;;;20.90;17.80;;;13.50;99.90;;;;;;5093558;28;20397;-62
2021/06/24 00:05:56;;;;;;;15.90;14.13;;;13.40;99.90;;;;;;5093768;28;20396;-62
2021/06/24 00:08:22;;;;;;;21.13;17.40;;;13.40;99.90;;;;;;5093048;28;20432;-63
2021/06/24 00:10:49;;;;;;;18.60;15.93;;;13.40;99.90;;;;;;5093441;28;20404;-63
2021/06/24 00:13:14;;;;;;;22.63;15.73;;;13.30;99.90;;;;;;5093264;28;20401;-63
2021/06/24 00:15:41;;;;;;;18.67;16.80;;;13.30;99.90;;;;;;5093325;28;20412;-62
2021/06/24 00:18:08;;;;;;;24.73;17.33;;;13.30;99.90;;;;;;5092897;28;20221;-63
2021/06/24 00:20:35;;;;;;;19.17;17.20;;;13.30;99.90;;;;;;5093215;28;20452;-63
2021/06/24 00:23:00;;;;;;;19.23;17.33;;;13.30;99.90;;;;;;5093188;28;20397;-62
2021/06/24 00:25:26;;;;;;;17.20;15.50;;;13.20;99.90;;;;;;5093180;28;20401;-62
2021/06/24 00:27:52;;;;;;;17.20;15.40;;;13.20;99.90;;;;;;5092660;28;20543;-62
2021/06/24 00:30:18;;;;;;;18.73;16.73;;;13.10;99.90;;;;;;5093139;28;20253;-62
2021/06/24 00:32:43;;;;;;;19.10;17.20;;;13.10;99.90;;;;;;5092900;28;20167;-62
2021/06/24 00:35:11;;;;;;;17.13;13.13;;;13.10;99.90;;;;;;5093005;28;20411;-62
2021/06/24 00:37:37;;;;;;;16.90;14.53;;;13.00;99.90;;;;;;5092619;28;20197;-63
2021/06/24 00:40:05;;;;;;;16.50;14.80;;;12.90;99.90;;;;;;5092821;28;20455;-62
2021/06/24 00:42:31;;;;;;;13.80;12.50;;;12.80;99.90;;;;;;5092805;28;20397;-63
2021/06/24 00:44:57;;;;;;;17.43;14.57;;;12.80;99.90;;;;;;5092745;28;20504;-63
2021/06/24 00:47:24;;;;;;;15.00;13.47;;;12.80;99.90;;;;;;5092406;28;20174;-63
2021/06/24 00:49:49;;;;;;;15.63;13.90;;;12.80;99.90;;;;;;5092887;28;20771;-62
2021/06/24 00:52:15;;;;;;;15.60;14.00;;;12.70;99.90;;;;;;5092636;28;20397;-62
2021/06/24 00:54:41;;;;;;;15.17;13.60;;;12.70;99.90;;;;;;5092606;28;20166;-62
2021/06/24 00:57:07;;;;;;;14.93;13.33;;;12.70;99.90;;;;;;5092118;28;20496;-63
2021/06/24 00:59:35;;;;;;;14.77;12.83;;;12.70;99.90;;;;;;5092511;28;20194;-62
2021/06/24 01:02:02;;;;;;;14.00;12.70;;;12.70;99.90;;;;;;5092460;28;20447;-63
2021/06/24 01:04:28;;;;;;;12.80;11.40;;;12.60;99.90;;;;;;5092279;28;20432;-63
2021/06/24 01:06:54;;;;;;;15.00;13.50;;;12.60;99.90;;;;;;5092095;28;20429;-63
2021/06/24 01:09:19;;;;;;;15.47;13.60;;;12.60;99.90;;;;;;5092552;28;20174;-63
2021/06/24 01:11:46;;;;;;;15.43;12.73;;;12.50;99.90;;;;;;5092284;28;20892;-63
2021/06/24 01:14:12;;;;;;;14.83;13.37;;;12.50;99.90;;;;;;5092466;28;20218;-62
2021/06/24 01:16:39;;;;;;;15.90;14.00;;;12.50;99.90;;;;;;5091977;28;20490;-63
2021/06/24 01:19:06;;;;;;;14.70;13.30;;;12.50;99.90;;;;;;5092137;28;20785;-62
2021/06/24 01:21:33;;;;;;;15.63;14.03;;;12.40;99.90;;;;;;5092215;28;20404;-63
2021/06/24 01:23:59;;;;;;;15.73;14.20;;;12.40;99.90;;;;;;5092064;28;20397;-63
2021/06/24 01:26:25;;;;;;;15.87;13.87;;;12.40;99.90;;;;;;5092050;28;20446;-63
2021/06/24 01:28:51;;;;;;;16.00;14.47;;;12.40;99.90;;;;;;5092017;28;20455;-62
2021/06/24 01:31:18;;;;;;;14.27;12.87;;;12.40;99.90;;;;;;5092165;28;20405;-62
2021/06/24 01:33:44;;;;;;;14.93;13.37;;;12.50;99.90;;;;;;5092034;28;20407;-62
2021/06/24 01:36:09;;;;;;;16.40;12.83;;;12.50;99.90;;;;;;5092013;28;20492;-63
2021/06/24 01:38:36;;;;;;;13.73;12.33;;;12.50;99.90;;;;;;5091654;28;20212;-62
2021/06/24 01:41:03;;;;;;;12.67;11.33;;;12.50;99.90;;;;;;5091907;28;20255;-62
2021/06/24 01:43:29;;;;;;;12.90;11.67;;;12.50;99.90;;;;;;5091979;28;20884;-63
2021/06/24 01:45:56;;;;;;;13.27;11.83;;;12.50;99.90;;;;;;5091954;28;20405;-63
2021/06/24 01:48:24;;;;;;;16.53;13.93;;;12.40;99.90;;;;;;5091596;28;20424;-62
2021/06/24 01:50:50;;;;;;;13.80;12.47;;;12.40;99.90;;;;;;5091859;28;20393;-63
2021/06/24 01:53:16;;;;;;;13.37;12.10;;;12.40;99.90;;;;;;5091782;28;20469;-62
2021/06/24 01:55:42;;;;;;;13.00;11.70;;;12.30;99.90;;;;;;5091840;28;20908;-63
2021/06/24 01:58:12;;;;;;;12.47;11.37;;;12.40;99.90;;;;;;5091477;28;20689;-62
2021/06/24 02:00:42;;;;;;;14.17;12.83;;;12.40;99.90;;;;;;5091621;28;20971;-62
2021/06/24 02:03:07;;;;;;;13.53;12.13;;;12.40;99.90;;;;;;5090489;28;20401;-63
2021/06/24 02:05:33;;;;;;;13.10;11.80;;;12.30;99.90;;;;;;5091790;28;20403;-62
2021/06/24 02:07:58;;;;;;;13.70;12.37;;;12.30;99.90;;;;;;5091322;28;20189;-62
2021/06/24 02:10:25;;;;;;;14.23;12.70;;;12.30;99.90;;;;;;5091718;28;20166;-62
2021/06/24 02:12:50;;;;;;;13.60;12.20;;;12.30;99.90;;;;;;5091620;28;20171;-62
2021/06/24 02:15:16;;;;;;;13.60;12.30;;;12.30;99.90;;;;;;5091674;28;20404;-63
2021/06/24 02:17:42;;;;;;;13.57;12.17;;;12.40;99.90;;;;;;5094071;28;20311;-62
2021/06/24 02:20:11;;;;;;;13.70;12.37;;;12.40;99.90;;;;;;5095471;28;20454;-63
2021/06/24 02:22:37;;;;;;;15.00;13.43;;;12.30;99.90;;;;;;5096006;28;20192;-62
2021/06/24 02:25:04;;;;;;;14.00;12.60;;;12.30;99.90;;;;;;5094222;28;20413;-62
2021/06/24 02:27:30;;;;;;;13.40;12.10;;;12.30;99.90;;;;;;5095148;28;20212;-62
2021/06/24 02:29:56;;;;;;;12.10;10.97;;;12.30;99.90;;;;;;5095456;28;20408;-61
2021/06/24 02:32:21;;;;;;;13.47;12.07;;;12.20;99.90;;;;;;5095437;28;20166;-62
2021/06/24 02:34:47;;;;;;;15.73;13.10;;;12.20;99.90;;;;;;5095241;28;20665;-62
2021/06/24 02:37:14;;;;;;;14.57;13.07;;;12.30;99.90;;;;;;5094807;28;20166;-62
2021/06/24 02:39:39;;;;;;;16.37;12.20;;;12.30;99.90;;;;;;5095167;28;20194;-62
2021/06/24 02:42:05;;;;;;;14.43;12.27;;;12.30;99.90;;;;;;5095196;28;20416;-62
2021/06/24 02:44:31;;;;;;;14.03;12.63;;;12.30;99.90;;;;;;5095162;28;20167;-62
2021/06/24 02:46:56;;;;;;;12.20;10.97;;;12.40;99.90;;;;;;5094805;28;20411;-61
2021/06/24 02:49:22;;;;;;;15.37;13.90;;;12.40;99.90;;;;;;5093702;28;20194;-62
2021/06/24 02:51:48;;;;;;;14.03;12.53;;;12.40;99.90;;;;;;5094985;28;20193;-62
2021/06/24 02:54:15;;;;;;;13.10;11.70;;;12.40;99.90;;;;;;5095095;28;20162;-62
2021/06/24 02:56:41;;;;;;;13.60;12.30;;;12.40;99.90;;;;;;5094550;28;20159;-62
2021/06/24 02:59:07;;;;;;;13.13;11.83;;;12.40;99.90;;;;;;5094745;28;20428;-61
2021/06/24 03:01:33;;;;;;;15.00;12.37;;;12.40;99.90;;;;;;5094758;28;20935;-62
2021/06/24 03:03:58;;;;;;;12.27;11.10;;;12.40;99.90;;;;;;5094664;28;20404;-61
2021/06/24 03:06:24;;;;;;;15.13;12.63;;;12.40;99.90;;;;;;5094578;28;20167;-63
2021/06/24 03:08:50;;;;;;;13.27;12.00;;;12.40;99.90;;;;;;5094503;28;20183;-62
2021/06/24 03:11:16;;;;;;;12.47;11.17;;;12.40;99.90;;;;;;5094709;28;20167;-64
2021/06/24 03:13:41;;;;;;;16.03;13.20;;;12.40;99.90;;;;;;5094596;28;20309;-61
2021/06/24 03:16:07;;;;;;;16.07;14.17;;;12.50;99.90;;;;;;5094537;28;20193;-62
2021/06/24 03:18:33;;;;;;;16.37;14.27;;;12.50;99.90;;;;;;5094205;28;20193;-62
2021/06/24 03:20:58;;;;;;;13.43;12.00;;;12.50;99.90;;;;;;5094335;28;20710;-62
2021/06/24 03:23:24;;;;;;;13.17;11.80;;;12.50;99.90;;;;;;5094360;28;20171;-64
2021/06/24 03:25:52;;;;;;;16.43;12.17;;;12.50;99.90;;;;;;5094398;28;20158;-61
2021/06/24 03:28:18;;;;;;;16.40;11.03;;;12.50;99.90;;;;;;5092702;28;20528;-62
2021/06/24 03:30:44;;;;;;;15.40;13.90;;;12.50;99.90;;;;;;5094281;28;20412;-61
2021/06/24 03:33:10;;;;;;;16.43;12.67;;;12.50;99.90;;;;;;5094068;28;20198;-62
2021/06/24 03:35:35;;;;;;;15.27;12.20;;;12.50;99.90;;;;;;5094303;28;20764;-62
2021/06/24 03:38:01;;;;;;;15.20;13.50;;;12.50;99.90;;;;;;5093778;28;20421;-62
2021/06/24 03:40:27;;;;;;;17.70;15.40;;;12.60;99.90;;;;;;5094173;28;20625;-63
2021/06/24 03:42:52;;;;;;;16.20;14.50;;;12.60;99.90;;;;;;5093988;28;20190;-62
2021/06/24 03:45:18;;;;;;;18.50;15.97;;;12.60;99.90;;;;;;5094091;28;20198;-61
2021/06/24 03:47:45;;;;;;;19.30;14.90;;;12.60;99.90;;;;;;5093642;28;20189;-62
2021/06/24 03:50:12;;;;;;;22.40;17.07;;;12.70;99.90;;;;;;5093874;28;20170;-62
2021/06/24 03:52:38;;;;;;;18.40;13.30;;;12.70;99.90;;;;;;5093774;28;20415;-62
2021/06/24 03:55:05;;;;;;;17.13;13.13;;;12.70;99.90;;;;;;5093782;28;20412;-63
2021/06/24 03:57:31;;;;;;;15.03;13.37;;;12.70;99.90;;;;;;5093261;28;20736;-61
2021/06/24 03:59:56;;;;;;;14.47;13.07;;;12.60;99.90;;;;;;5093631;28;20452;-61
2021/06/24 04:02:23;;;;;;;17.30;13.90;;;12.60;99.90;;;;;;5093401;28;20186;-62
2021/06/24 04:04:49;;;;;;;15.37;13.43;;;12.60;99.90;;;;;;5093519;28;20166;-61
2021/06/24 04:07:14;;;;;;;17.30;15.60;;;12.60;99.90;;;;;;5093166;28;20405;-61
2021/06/24 04:09:40;;;;;;;15.97;14.33;;;12.60;99.90;;;;;;5093563;28;20770;-61
2021/06/24 04:12:06;;;;;;;17.17;15.43;;;12.70;99.90;;;;;;5093447;28;20178;-62
2021/06/24 04:14:32;;;;;;;17.63;15.13;;;12.60;99.90;;;;;;5093438;28;20171;-62
2021/06/24 04:16:57;;;;;;;19.47;14.60;;;12.70;99.90;;;;;;5093056;28;20405;-61
2021/06/24 04:19:23;;;;;;;22.53;15.60;;;12.70;99.90;;;;;;5093295;28;20221;-61
2021/06/24 04:21:49;;;;;;;18.87;15.33;;;12.70;99.90;;;;;;5093288;28;20171;-62
2021/06/24 04:24:15;;;;;;;19.00;16.20;;;12.70;99.90;;;;;;5093172;28;20657;-61
2021/06/24 04:26:41;;;;;;;23.70;19.50;;;12.70;99.90;;;;;;5092942;28;20220;-62
2021/06/24 04:29:07;;;;;;;19.63;15.70;;;12.70;99.90;;;;;;5093088;28;20506;-62
2021/06/24 04:31:32;;;;;;;23.73;18.03;;;12.80;99.90;;;;;;5093005;28;20869;-63
2021/06/24 04:33:58;;;;;;;23.67;18.73;;;12.80;99.90;;;;;;5092977;28;20166;-61
2021/06/24 04:36:24;;;;;;;30.03;21.70;;;12.90;99.90;;;;;;5093032;28;20197;-62
2021/06/24 04:38:49;;;;;;;40.80;26.87;;;12.90;99.90;;;;;;5092512;28;20186;-61
2021/06/24 04:41:15;;;;;;;38.13;25.50;;;12.90;99.90;;;;;;5092626;28;20290;-62
2021/06/24 04:43:41;;;;;;;31.97;23.83;;;12.90;99.90;;;;;;5092886;28;20167;-63
2021/06/24 04:46:06;;;;;;;38.03;25.87;;;12.90;99.90;;;;;;5092731;28;20198;-61
2021/06/24 04:48:32;;;;;;;31.97;23.60;;;13.00;99.90;;;;;;5092351;28;20186;-61
2021/06/24 04:50:57;;;;;;;40.60;28.63;;;13.00;99.90;;;;;;5092729;28;20550;-61
2021/06/24 04:53:23;;;;;;;41.83;27.10;;;13.10;99.90;;;;;;5092699;28;20170;-64
2021/06/24 04:55:48;;;;;;;38.17;26.37;;;13.10;99.90;;;;;;5092687;28;20166;-61
2021/06/24 04:58:14;;;;;;;41.13;26.87;;;13.10;99.90;;;;;;5092262;28;20703;-61
2021/06/24 05:00:40;;;;;;;40.33;26.13;;;13.20;99.90;;;;;;5092328;28;20203;-62
2021/06/24 05:03:10;;;;;;;41.30;26.40;;;13.20;99.90;;;;;;5092452;28;20181;-62
2021/06/24 05:05:35;;;;;;;35.80;24.83;;;13.20;99.90;;;;;;5092494;28;20167;-61
2021/06/24 05:08:07;;;;;;;39.90;26.47;;;13.20;99.90;;;;;;5092108;28;21024;-61
2021/06/24 05:10:33;;;;;;;37.87;25.07;;;13.30;99.90;;;;;;5092465;28;20178;-61
2021/06/24 05:12:59;;;;;;;37.40;25.53;;;13.40;99.90;;;;;;5092314;28;20769;-61
2021/06/24 05:15:24;;;;;;;38.27;24.90;;;13.40;99.90;;;;;;5092244;28;20204;-63
2021/06/24 05:17:51;;;;;;;34.50;26.43;;;13.40;99.90;;;;;;5091958;28;20193;-63
2021/06/24 05:20:17;;;;;;;37.60;25.00;;;13.40;99.90;;;;;;5092199;28;20598;-61
2021/06/24 05:22:42;;;;;;;48.23;28.13;;;13.50;99.90;;;;;;5092184;28;20405;-63
2021/06/24 05:25:10;;;;;;;51.23;30.27;;;13.50;99.90;;;;;;5092240;28;20315;-61
2021/06/24 05:27:36;;;;;;;48.70;29.13;;;13.50;99.90;;;;;;5091809;28;20182;-62
2021/06/24 05:30:03;;;;;;;46.23;30.90;;;13.60;99.90;;;;;;5092042;28;20913;-61
2021/06/24 05:32:28;;;;;;;47.07;29.57;;;13.70;99.90;;;;;;5092300;28;20320;-61
2021/06/24 05:34:54;;;;;;;41.07;26.70;;;13.70;99.90;;;;;;5092025;28;20488;-61
2021/06/24 05:37:20;;;;;;;40.70;27.30;;;13.70;99.90;;;;;;5091719;28;20175;-61
2021/06/24 05:39:45;;;;;;;42.37;27.40;;;13.70;99.90;;;;;;5091962;28;20459;-62
2021/06/24 05:42:11;;;;;;;42.50;26.83;;;13.80;99.90;;;;;;5092016;28;20719;-62
2021/06/24 05:44:37;;;;;;;43.43;26.63;;;13.80;99.90;;;;;;5091752;28;20167;-64
2021/06/24 05:47:03;;;;;;;38.27;25.27;;;13.80;99.90;;;;;;5091664;28;20182;-59
2021/06/24 05:49:28;;;;;;;45.03;26.37;;;13.80;99.90;;;;;;5091922;28;20190;-61
2021/06/24 05:51:54;;;;;;;37.10;25.47;;;13.80;99.90;;;;;;5093473;28;20243;-61
2021/06/24 05:54:20;;;;;;;36.80;24.77;;;13.80;99.90;;;;;;5096102;28;20167;-62
2021/06/24 05:56:45;;;;;;;32.73;25.10;;;13.80;99.90;;;;;;5095794;28;20249;-63
2021/06/24 05:59:11;;;;;;;36.80;25.10;;;13.90;99.90;;;;;;5095827;28;20442;-61
2021/06/24 06:01:40;;;;;;;37.37;25.93;;;13.90;99.90;;;;;;5095861;28;20182;-61
2021/06/24 06:04:06;;;;;;;36.03;23.50;;;13.90;99.90;;;;;;5095796;28;20617;-61
2021/06/24 06:06:31;;;;;;;33.33;20.90;;;13.80;99.90;;;;;;5095680;28;20411;-64
2021/06/24 06:08:57;;;;;;;33.53;22.63;;;13.80;99.90;;;;;;5095820;28;20190;-61
2021/06/24 06:11:23;;;;;;;33.00;23.30;;;13.80;99.90;;;;;;5095831;28;20167;-62
2021/06/24 06:13:48;;;;;;;35.57;22.97;;;13.80;99.90;;;;;;5095685;28;20249;-62
2021/06/24 06:16:15;;;;;;;39.37;25.60;;;13.90;99.90;;;;;;5095785;28;20171;-63
2021/06/24 06:18:40;;;;;;;35.43;25.57;;;13.80;99.90;;;;;;5095357;28;20190;-62
2021/06/24 06:21:06;;;;;;;31.40;22.87;;;13.90;99.90;;;;;;5095566;28;21108;-64
2021/06/24 06:23:31;;;;;;;35.23;26.30;;;13.90;99.90;;;;;;5095520;28;20162;-61
2021/06/24 06:25:57;;;;;;;31.77;23.00;;;13.90;99.90;;;;;;5095562;28;20248;-61
2021/06/24 06:28:25;;;;;;;39.30;26.73;;;13.90;99.90;;;;;;5095112;28;20182;-62
2021/06/24 06:30:51;;;;;;;31.30;23.43;;;14.00;99.90;;;;;;5095451;28;20631;-64
2021/06/24 06:33:18;;;;;;;29.37;21.77;;;14.00;99.90;;;;;;5095293;28;20408;-62
2021/06/24 06:35:44;;;;;;;31.10;24.13;;;14.00;99.90;;;;;;5095449;28;20767;-61
2021/06/24 06:38:10;;;;;;;35.13;23.33;;;14.00;99.90;;;;;;5094932;28;20507;-61
2021/06/24 06:40:36;;;;;;;36.30;25.43;;;14.00;99.90;;;;;;5095163;28;20987;-61
2021/06/24 06:43:02;;;;;;;33.60;24.30;;;14.00;99.90;;;;;;5095131;28;20400;-61
2021/06/24 06:45:29;;;;;;;35.30;26.67;;;14.00;99.90;;;;;;5095333;28;20166;-61
2021/06/24 06:47:55;;;;;;;35.47;25.60;;;14.00;99.90;;;;;;5094810;28;20542;-62
2021/06/24 06:50:20;;;;;;;28.10;22.60;;;14.00;99.90;;;;;;5095087;28;20449;-61
2021/06/24 06:52:46;;;;;;;36.23;26.13;;;14.00;99.90;;;;;;5094935;28;20424;-61
2021/06/24 06:55:12;;;;;;;33.30;24.93;;;14.10;99.90;;;;;;5095038;28;20249;-62
2021/06/24 06:57:38;;;;;;;30.50;24.47;;;14.00;99.90;;;;;;5094392;28;20203;-61
2021/06/24 07:00:06;;;;;;;33.07;24.03;;;14.00;99.90;;;;;;5094788;28;20444;-62
2021/06/24 07:02:31;;;;;;;32.20;25.80;;;14.00;99.90;;;;;;5094416;28;20546;-66
2021/06/24 07:04:57;;;;;;;37.17;26.23;;;13.90;99.90;;;;;;5094825;28;20400;-61
2021/06/24 07:07:23;;;;;;;39.70;27.57;;;14.00;99.90;;;;;;5094375;28;20254;-61
2021/06/24 07:09:48;;;;;;;38.07;26.10;;;14.00;99.90;;;;;;5094844;28;20250;-62
2021/06/24 07:12:14;;;;;;;39.90;29.63;;;14.10;99.90;;;;;;5094583;28;20751;-63
2021/06/24 07:14:40;;;;;;;39.20;27.77;;;14.10;99.90;;;;;;5094520;28;20212;-61
2021/06/24 07:17:05;;;;;;;43.23;30.30;;;14.10;99.90;;;;;;5094317;28;20216;-61
2021/06/24 07:19:31;;;;;;;44.67;28.03;;;14.20;99.90;;;;;;5094374;28;20189;-62
2021/06/24 07:21:56;;;;;;;41.17;28.40;;;14.20;99.90;;;;;;5094519;28;20198;-62
2021/06/24 07:24:22;;;;;;;40.50;30.70;;;14.30;99.90;;;;;;5094394;28;20163;-64
2021/06/24 07:26:48;;;;;;;44.60;30.70;;;14.50;99.90;;;;;;5094080;28;20750;-61
2021/06/24 07:29:14;;;;;;;46.57;30.57;;;14.50;99.90;;;;;;5094281;28;20223;-61
2021/06/24 07:31:40;;;;;;;46.80;30.50;;;14.60;99.90;;;;;;5094315;28;20634;-61
2021/06/24 07:34:06;;;;;;;53.07;32.57;;;14.70;99.90;;;;;;5094193;28;20936;-61
2021/06/24 07:36:31;;;;;;;51.07;33.73;;;14.70;99.90;;;;;;5093988;28;20485;-62
2021/06/24 07:38:57;;;;;;;48.17;30.93;;;14.80;99.90;;;;;;5094045;28;20182;-62
2021/06/24 07:41:24;;;;;;;57.00;33.83;;;14.80;99.90;;;;;;5093947;28;20198;-64
2021/06/24 07:43:53;;;;;;;61.00;38.47;;;14.80;99.90;;;;;;5093939;28;20158;-62
2021/06/24 07:46:20;;;;;;;54.67;37.20;;;14.90;99.90;;;;;;5092897;28;20400;-64
2021/06/24 07:48:48;;;;;;;63.67;37.70;;;14.90;99.90;;;;;;5093594;28;20465;-62
2021/06/24 07:51:14;;;;;;;66.50;40.23;;;15.00;99.90;;;;;;5093922;28;20405;-63
2021/06/24 07:53:42;;;;;;;67.60;42.00;;;15.00;99.90;;;;;;5093701;28;20404;-62
2021/06/24 07:56:09;;;;;;;61.00;39.20;;;15.00;99.90;;;;;;5093721;28;20412;-61
2021/06/24 07:58:35;;;;;;;71.67;38.93;;;15.00;99.90;;;;;;5093405;28;21020;-61
2021/06/24 08:01:01;;;;;;;63.53;40.60;;;15.00;99.90;;;;;;5093514;28;20480;-62
2021/06/24 08:03:26;;;;;;;61.17;39.50;;;15.10;99.90;;;;;;5093708;28;20485;-61
2021/06/24 08:05:52;;;;;;;63.67;40.23;;;15.10;99.90;;;;;;5093646;28;20166;-62
2021/06/24 08:08:18;;;;;;;62.50;39.80;;;15.10;99.90;;;;;;5093170;28;20601;-63
2021/06/24 08:10:43;;;;;;;62.30;38.10;;;15.20;99.90;;;;;;5093498;28;20167;-61
2021/06/24 08:13:09;;;;;;;57.63;37.40;;;15.20;99.90;;;;;;5092368;28;20253;-61
2021/06/24 08:15:34;;;;;;;57.63;37.63;;;15.20;99.90;;;;;;5092673;28;20179;-62
2021/06/24 08:18:00;;;;;;;60.50;40.30;;;15.20;99.90;;;;;;5093021;28;20194;-63
2021/06/24 08:20:26;;;;;;;64.00;42.30;;;15.20;99.90;;;;;;5093342;28;20190;-61
2021/06/24 08:22:53;;;;;;;67.30;41.20;;;15.30;99.90;;;;;;5093721;28;20180;-62
2021/06/24 08:25:19;;;;;;;66.37;44.00;;;15.40;99.90;;;;;;5093227;28;20182;-63
2021/06/24 08:27:44;;;;;;;60.77;38.27;;;15.50;99.90;;;;;;5092804;28;20839;-63
2021/06/24 08:30:11;;;;;;;65.70;41.03;;;15.50;99.90;;;;;;5093156;28;20243;-63
2021/06/24 08:32:37;;;;;;;65.73;43.13;;;15.60;99.90;;;;;;5093020;28;20171;-63
2021/06/24 08:35:05;;;;;;;71.07;44.87;;;15.50;99.90;;;;;;5093045;28;20496;-63
2021/06/24 08:37:31;;;;;;;62.50;42.93;;;15.40;99.90;;;;;;5092584;28;20233;-63
2021/06/24 08:39:56;;;;;;;69.60;41.87;;;15.40;99.90;;;;;;5092968;28;20452;-63
2021/06/24 08:42:22;;;;;;;51.90;37.70;;;15.40;99.90;;;;;;5092944;28;20220;-63
2021/06/24 08:44:48;;;;;;;65.37;43.03;;;15.40;99.90;;;;;;5092822;28;20249;-63
2021/06/24 08:47:14;;;;;;;62.73;42.50;;;15.50;99.90;;;;;;5092467;28;20691;-63
2021/06/24 08:49:40;;;;;;;60.77;36.73;;;15.50;99.90;;;;;;5092783;28;20171;-63
2021/06/24 08:52:08;;;;;;;63.07;38.60;;;15.60;99.90;;;;;;5092623;28;20404;-63
2021/06/24 08:54:34;;;;;;;56.33;39.40;;;15.70;99.90;;;;;;5092692;28;20491;-62
2021/06/24 08:56:59;;;;;;;56.70;37.93;;;15.70;99.90;;;;;;5092311;28;20543;-63
2021/06/24 08:59:25;;;;;;;62.00;44.83;;;15.70;99.90;;;;;;5092525;28;20635;-63
2021/06/24 09:01:52;;;;;;;63.30;40.53;;;15.70;99.90;;;;;;5092517;28;20183;-63
2021/06/24 09:04:21;;;;;;;59.47;37.70;;;15.70;99.90;;;;;;5092477;28;20293;-63
2021/06/24 09:06:47;;;;;;;61.27;39.37;;;15.60;99.90;;;;;;5092074;28;20404;-63
2021/06/24 09:09:24;;;;;;;55.87;37.07;;;15.70;99.90;;;;;;5092396;28;20470;-63
2021/06/24 09:12:00;;;;;;;59.60;39.33;;;15.60;99.90;;;;;;5092433;28;20800;-62
2021/06/24 09:14:37;;;;;;;60.23;38.60;;;15.60;99.90;;;;;;5092391;28;20400;-63
2021/06/24 09:17:03;;;;;;;63.03;40.87;;;15.70;99.90;;;;;;5092006;28;20428;-62
2021/06/24 09:19:28;;;;;;;66.67;42.60;;;15.70;99.90;;;;;;5092196;28;20490;-63
2021/06/24 09:22:00;;;;;;;73.93;47.37;;;15.80;99.90;;;;;;5092382;28;20182;-63
2021/06/24 09:24:31;;;;;;;58.43;44.07;;;15.90;99.90;;;;;;5090836;28;20174;-63
2021/06/24 09:26:59;;;;;;;78.83;48.70;;;15.90;99.90;;;;;;5091873;28;20408;-62
2021/06/24 09:29:25;;;;;;;77.80;48.47;;;15.90;99.90;;;;;;5092090;28;20909;-63
2021/06/24 09:31:57;;;;;;;82.90;52.17;;;16.00;99.90;;;;;;5092119;28;20431;-62
2021/06/24 09:34:23;;;;;;;79.33;54.00;;;16.10;99.90;;;;;;5092100;28;20397;-63
2021/06/24 09:36:51;;;;;;;76.90;51.33;;;16.10;99.90;;;;;;5091757;28;20407;-63
2021/06/24 09:39:29;;;;;;;71.60;48.97;;;16.10;99.90;;;;;;5091996;28;20955;-63
2021/06/24 09:42:05;;;;;;;71.30;49.63;;;16.10;99.90;;;;;;5092044;28;20438;-63
2021/06/24 09:44:32;;;;;;;69.23;46.70;;;16.00;99.90;;;;;;5092096;28;20431;-62
2021/06/24 09:46:59;;;;;;;71.03;47.37;;;16.10;99.90;;;;;;5091663;28;20425;-62
2021/06/24 09:49:33;;;;;;;76.10;50.47;;;16.10;99.90;;;;;;5091926;28;20433;-63
2021/06/24 09:52:01;;;;;;;71.27;48.00;;;16.20;99.90;;;;;;5090973;28;20786;-62
2021/06/24 09:54:30;;;;;;;63.90;43.87;;;16.20;99.90;;;;;;5091813;28;20905;-63
2021/06/24 09:56:57;;;;;;;75.40;51.00;;;16.20;99.90;;;;;;5091525;28;20454;-63
2021/06/24 09:59:34;;;;;;;77.27;49.83;;;16.30;99.90;;;;;;5091730;28;20496;-63
2021/06/24 10:02:07;;;;;;;67.70;46.00;;;16.20;99.90;;;;;;5091752;28;20529;-62
2021/06/24 10:04:33;;;;;;;60.03;43.50;;;16.20;99.90;;;;;;5091831;28;20404;-63
2021/06/24 10:07:02;;;;;;;65.37;43.10;;;16.20;99.90;;;;;;5091352;28;20393;-62
2021/06/24 10:09:30;;;;;;;61.97;43.90;;;16.20;99.90;;;;;;5091655;28;20420;-62
2021/06/24 10:11:56;;;;;;;71.07;46.00;;;16.10;99.90;;;;;;5091731;28;20401;-63
2021/06/24 10:14:22;;;;;;;60.10;45.00;;;16.10;99.90;;;;;;5091657;28;20488;-63
2021/06/24 10:16:53;;;;;;;63.30;46.90;;;16.20;99.90;;;;;;5091429;28;20397;-63
2021/06/24 10:19:28;;;;;;;65.83;45.83;;;16.20;99.90;;;;;;5091666;28;20416;-62
2021/06/24 10:21:58;;;;;;;77.10;50.37;;;16.30;99.90;;;;;;5091661;28;20396;-62
2021/06/24 10:24:40;;;;;;;64.97;47.17;;;16.40;99.90;;;;;;5091623;28;20518;-63
2021/06/24 10:27:10;;;;;;;61.27;42.37;;;16.40;99.90;;;;;;5091333;28;20892;-63
2021/06/24 10:29:54;;;;;;;72.50;47.70;;;16.40;99.90;;;;;;5091617;28;20775;-63
2021/06/24 10:32:30;;;;;;;79.40;51.57;;;16.40;99.90;;;;;;5091537;28;20400;-63
2021/06/24 10:34:57;;;;;;;71.87;51.00;;;16.50;99.90;;;;;;5091539;28;20610;-63
2021/06/24 10:37:24;;;;;;;62.93;46.10;;;16.50;99.90;;;;;;5091702;28;20385;-63
2021/06/24 10:39:52;;;;;;;60.00;47.83;;;16.60;99.90;;;;;;5095220;28;20440;-63
2021/06/24 10:42:19;;;;;;;62.63;43.73;;;16.60;99.90;;;;;;5095310;28;20400;-63
2021/06/24 10:44:49;;;;;;;59.60;43.83;;;16.70;99.90;;;;;;5095026;28;20401;-63
2021/06/24 10:47:34;;;;;;;65.43;45.47;;;16.70;99.90;;;;;;5094894;28;20397;-63
2021/06/24 10:50:29;;;;;;;62.40;46.93;;;16.80;99.90;;;;;;5095137;28;20396;-63
2021/06/24 10:53:03;;;;;;;59.40;45.83;;;16.80;99.90;;;;;;5094872;28;20384;-62
2021/06/24 10:55:32;;;;;;;58.00;42.63;;;16.80;99.90;;;;;;5095071;28;20392;-62
2021/06/24 10:57:58;;;;;;;55.53;44.73;;;16.80;99.90;;;;;;5094606;28;20993;-63
2021/06/24 11:00:33;;;;;;;56.60;43.20;;;16.80;99.90;;;;;;5094719;28;20501;-63
2021/06/24 11:03:00;;;;;;;56.57;44.20;;;16.90;99.90;;;;;;5094869;28;20504;-63
2021/06/24 11:05:40;;;;;;;58.47;42.27;;;16.90;99.90;;;;;;5094744;28;20405;-63
2021/06/24 11:08:12;;;;;;;55.73;41.70;;;17.00;99.90;;;;;;5094463;28;21302;-63
2021/06/24 11:11:01;;;;;;;62.10;44.00;;;17.00;99.90;;;;;;5094768;28;20769;-63
2021/06/24 11:13:39;;;;;;;58.70;42.70;;;17.00;99.90;;;;;;5094631;28;20404;-63
2021/06/24 11:16:07;;;;;;;57.17;41.63;;;17.10;99.90;;;;;;5094629;28;20399;-63
2021/06/24 11:18:33;;;;;;;58.53;44.67;;;17.20;99.90;;;;;;5094237;28;20427;-63
2021/06/24 11:21:07;;;;;;;60.87;44.50;;;17.20;99.90;;;;;;5094597;28;20445;-63
2021/06/24 11:23:35;;;;;;;54.87;41.77;;;17.30;99.90;;;;;;5094376;28;20257;-63
2021/06/24 11:26:10;;;;;;;59.43;46.60;;;17.30;99.90;;;;;;5094426;28;20404;-63
2021/06/24 11:28:48;;;;;;;56.73;43.40;;;17.30;99.90;;;;;;5094046;28;20422;-63
2021/06/24 11:31:16;;;;;;;57.37;44.83;;;17.30;99.90;;;;;;5094359;28;20943;-63
2021/06/24 11:33:54;;;;;;;51.77;44.60;;;17.30;99.90;;;;;;5094225;28;20462;-63
2021/06/24 11:36:20;;;;;;;52.33;40.47;;;17.30;99.90;;;;;;5094272;28;20407;-63
2021/06/24 11:38:48;;;;;;;57.40;42.00;;;17.30;99.90;;;;;;5093739;28;20432;-63
2021/06/24 11:41:19;;;;;;;62.83;45.10;;;17.40;99.90;;;;;;5094046;28;20451;-63
2021/06/24 11:44:01;;;;;;;46.60;40.50;;;17.40;99.90;;;;;;5094073;28;20415;-62
2021/06/24 11:46:29;;;;;;;54.47;43.13;;;17.50;99.90;;;;;;5093802;28;20429;-63
2021/06/24 12:05:06;;;;;;;44.93;38.53;;;17.40;99.90;;;;;;5093797;28;20896;-63
2021/06/24 12:07:35;;;;;;;49.77;40.57;;;17.30;99.90;;;;;;5093275;28;20454;-63
2021/06/24 12:10:00;;;;;;;53.03;39.90;;;17.40;99.90;;;;;;5093489;28;20393;-63
2021/06/24 12:12:28;;;;;;;46.20;38.80;;;17.40;99.90;;;;;;5093435;28;20494;-63
2021/06/24 12:15:01;;;;;;;46.13;40.23;;;17.50;99.90;;;;;;5093396;28;20401;-63
2021/06/24 12:17:37;;;;;;;45.67;35.57;;;17.50;99.90;;;;;;5093076;28;20526;-63
2021/06/24 12:20:12;;;;;;;49.43;38.80;;;17.60;99.90;;;;;;5093288;28;20458;-63
2021/06/24 12:22:49;;;;;;;56.90;42.53;;;17.60;99.90;;;;;;5093155;28;20400;-63
2021/06/24 12:25:19;;;;;;;45.40;37.00;;;17.60;99.90;;;;;;5093331;28;20396;-63
2021/06/24 12:27:48;;;;;;;50.33;40.23;;;17.50;99.90;;;;;;5092891;28;20416;-63
2021/06/24 12:30:40;;;;;;;47.47;37.63;;;17.50;99.90;;;;;;5093160;28;20408;-63
2021/06/24 12:33:11;;;;;;;44.27;36.60;;;17.50;99.90;;;;;;5084239;28;20666;-63
2021/06/24 12:35:46;;;;;;;50.03;39.30;;;17.40;99.90;;;;;;5092102;28;20443;-63
2021/06/24 12:38:15;;;;;;;48.67;37.50;;;17.40;99.90;;;;;;5091430;28;20424;-63
2021/06/24 12:40:45;;;;;;;49.47;40.07;;;17.40;99.90;;;;;;5089819;28;20454;-62
2021/06/24 12:43:17;;;;;;;52.30;38.37;;;17.40;99.90;;;;;;5092847;28;20404;-63
2021/06/24 12:45:44;;;;;;;47.33;38.30;;;17.40;99.90;;;;;;5092982;28;20762;-63